Time;durP1;ratioP1;P1;durP2;ratioP2;P2;SDS_P1;SDS_P2;PMS_P1;PMS_P2;Temp;Humidity;BMP_temperature;BMP_pressure;BME280_temperature;BME280_humidity;BME280_pressure;Samples;Min_cycle;Max_cycle;Signal;HPM_P1;HPM_P2
2022/07/08 00:01:21;;;;;;;7.10;3.90;;;23.40;85.30;;;;;;4937287;28;20210;-76
2022/07/08 00:03:50;;;;;;;5.18;3.72;;;23.40;85.50;;;;;;4940954;28;20321;-76
2022/07/08 00:06:18;;;;;;;4.80;3.20;;;23.40;85.50;;;;;;4944442;28;20206;-76
2022/07/08 00:08:48;;;;;;;5.57;3.88;;;23.40;85.50;;;;;;4940777;28;20254;-77
2022/07/08 00:11:16;;;;;;;6.88;4.40;;;23.40;85.40;;;;;;4944501;28;20207;-77
2022/07/08 00:13:45;;;;;;;7.93;3.75;;;23.40;85.40;;;;;;4941255;28;20739;-76
2022/07/08 00:16:13;;;;;;;7.65;4.68;;;23.40;85.40;;;;;;4942920;28;20242;-76
2022/07/08 00:18:41;;;;;;;5.35;3.67;;;23.40;85.50;;;;;;4942773;28;20202;-76
2022/07/08 00:21:10;;;;;;;7.00;4.55;;;23.40;85.50;;;;;;4943386;28;20202;-76
2022/07/08 00:23:38;;;;;;;5.40;3.90;;;23.30;85.50;;;;;;4942822;28;20205;-77
2022/07/08 00:26:08;;;;;;;7.13;4.53;;;23.40;85.60;;;;;;4931453;28;20201;-76
2022/07/08 00:28:37;;;;;;;5.97;4.18;;;23.30;85.60;;;;;;4942416;28;20198;-75
2022/07/08 00:31:05;;;;;;;10.80;4.70;;;23.30;85.70;;;;;;4934572;28;20197;-75
2022/07/08 00:33:34;;;;;;;7.15;4.63;;;23.30;85.80;;;;;;4935591;28;20218;-76
2022/07/08 00:36:02;;;;;;;7.70;4.10;;;23.30;85.80;;;;;;4944069;28;20194;-76
2022/07/08 00:38:30;;;;;;;6.97;4.43;;;23.30;85.90;;;;;;4938693;28;20206;-76
2022/07/08 00:40:59;;;;;;;5.70;3.97;;;23.30;85.90;;;;;;4940738;28;20297;-76
2022/07/08 00:43:36;;;;;;;6.55;4.55;;;23.30;85.90;;;;;;4938079;28;20202;-77
2022/07/08 00:46:05;;;;;;;7.55;4.55;;;23.20;86.00;;;;;;4942068;28;20683;-75
2022/07/08 00:48:34;;;;;;;5.90;4.00;;;23.20;86.00;;;;;;4937726;28;20199;-76
2022/07/08 00:51:05;;;;;;;9.05;4.05;;;23.20;86.10;;;;;;4942192;28;20205;-75
2022/07/08 00:53:35;;;;;;;7.68;4.07;;;23.20;86.20;;;;;;4943470;28;20190;-76
2022/07/08 00:56:05;;;;;;;8.25;4.65;;;23.20;86.20;;;;;;4931166;28;20203;-76
2022/07/08 00:58:35;;;;;;;6.93;3.80;;;23.20;86.30;;;;;;4936780;28;20190;-75
2022/07/08 01:01:04;;;;;;;7.47;4.38;;;23.20;86.40;;;;;;4941005;28;20198;-77
2022/07/08 01:03:33;;;;;;;6.40;4.35;;;23.10;86.40;;;;;;4941205;28;20225;-76
2022/07/08 01:06:02;;;;;;;11.23;4.45;;;23.10;86.40;;;;;;4940692;28;20205;-76
2022/07/08 01:08:30;;;;;;;7.20;4.20;;;23.10;86.50;;;;;;4942680;28;20195;-76
2022/07/08 01:10:59;;;;;;;5.82;4.40;;;23.10;86.50;;;;;;4936857;28;20199;-75
2022/07/08 01:13:28;;;;;;;10.25;4.65;;;23.10;86.60;;;;;;4945738;29;20198;-76
2022/07/08 01:15:58;;;;;;;9.10;4.50;;;23.10;86.70;;;;;;4942893;28;20205;-76
2022/07/08 01:18:28;;;;;;;8.40;5.30;;;23.10;86.70;;;;;;4942654;28;20269;-76
2022/07/08 01:20:59;;;;;;;6.78;4.28;;;23.10;86.80;;;;;;4939388;28;20519;-77
2022/07/08 01:23:28;;;;;;;6.18;4.68;;;23.00;86.80;;;;;;4937999;28;20186;-78
2022/07/08 01:25:57;;;;;;;7.28;4.50;;;23.00;86.90;;;;;;4936837;28;20202;-76
2022/07/08 01:28:25;;;;;;;7.70;4.80;;;23.00;87.00;;;;;;4941838;28;20198;-75
2022/07/08 01:30:54;;;;;;;7.03;5.05;;;23.00;87.00;;;;;;4939571;28;20285;-75
2022/07/08 01:33:24;;;;;;;7.10;4.85;;;23.00;87.00;;;;;;4941392;28;20257;-75
2022/07/08 01:35:52;;;;;;;8.20;4.60;;;23.00;87.10;;;;;;4935709;28;20198;-76
2022/07/08 01:38:22;;;;;;;6.75;4.82;;;23.00;87.20;;;;;;4941508;28;20225;-76
2022/07/08 01:40:50;;;;;;;7.55;4.63;;;23.00;87.20;;;;;;4941717;28;20201;-76
2022/07/08 01:43:20;;;;;;;7.22;5.50;;;23.00;87.20;;;;;;4941478;28;20547;-76
2022/07/08 01:45:49;;;;;;;7.55;5.25;;;23.00;87.20;;;;;;4942476;28;20202;-76
2022/07/08 01:48:17;;;;;;;9.25;4.93;;;23.00;87.30;;;;;;4942426;28;20195;-76
2022/07/08 01:50:46;;;;;;;6.00;4.20;;;23.00;87.20;;;;;;4940997;28;20203;-76
2022/07/08 01:53:14;;;;;;;8.23;5.50;;;22.90;87.60;;;;;;4939627;28;20704;-76
2022/07/08 01:55:45;;;;;;;7.30;5.45;;;22.90;87.30;;;;;;4905704;29;20602;-76
2022/07/08 01:58:14;;;;;;;7.15;4.80;;;22.90;87.50;;;;;;4939692;28;20221;-76
2022/07/08 02:00:42;;;;;;;10.35;4.93;;;22.90;87.50;;;;;;4946423;28;20201;-76
2022/07/08 02:03:11;;;;;;;7.50;5.15;;;22.90;87.50;;;;;;4939930;28;20247;-75
2022/07/08 02:05:39;;;;;;;8.70;5.30;;;22.90;87.50;;;;;;4939922;28;20277;-76
2022/07/08 02:08:07;;;;;;;7.80;5.20;;;22.90;87.50;;;;;;4941973;28;20287;-76
2022/07/08 02:13:20;;;;;;;9.18;5.28;;;22.90;87.60;;;;;;4945501;28;20197;-76
2022/07/08 02:15:48;;;;;;;7.70;5.10;;;22.90;87.60;;;;;;4939643;28;20195;-76
2022/07/08 02:18:17;;;;;;;7.45;5.38;;;22.90;87.60;;;;;;4941177;28;20281;-76
2022/07/08 02:20:46;;;;;;;9.95;5.63;;;22.90;87.60;;;;;;4938043;28;20206;-76
2022/07/08 02:23:14;;;;;;;9.98;5.78;;;22.90;88.50;;;;;;4942422;28;20286;-75
2022/07/08 02:25:42;;;;;;;10.95;5.88;;;22.90;87.70;;;;;;4940119;28;20202;-75
2022/07/08 02:28:11;;;;;;;7.82;5.32;;;22.90;87.90;;;;;;4938496;28;20198;-75
2022/07/08 02:30:40;;;;;;;8.25;5.47;;;22.90;87.90;;;;;;4942907;28;20199;-75
2022/07/08 02:33:09;;;;;;;9.00;5.40;;;22.90;87.90;;;;;;4944889;28;20194;-76
2022/07/08 02:35:37;;;;;;;8.18;5.47;;;22.90;88.00;;;;;;4942398;28;20197;-76
2022/07/08 02:38:06;;;;;;;10.50;6.28;;;22.90;88.10;;;;;;4945964;28;20904;-77
2022/07/08 02:40:34;;;;;;;7.95;5.47;;;22.90;88.20;;;;;;4945610;28;20210;-76
2022/07/08 02:43:03;;;;;;;10.68;6.28;;;22.90;88.30;;;;;;4942380;28;20202;-76
2022/07/08 02:45:31;;;;;;;9.57;6.53;;;22.90;88.30;;;;;;4946325;28;20195;-75
2022/07/08 02:48:01;;;;;;;9.65;5.95;;;22.90;88.40;;;;;;4937371;28;20262;-76
2022/07/08 02:50:29;;;;;;;9.18;6.18;;;22.90;88.50;;;;;;4937760;28;20199;-75
2022/07/08 02:52:59;;;;;;;11.02;6.35;;;22.90;88.50;;;;;;4947277;28;20233;-76
2022/07/08 02:55:28;;;;;;;11.73;6.22;;;22.90;88.60;;;;;;4933651;28;20841;-76
2022/07/08 02:57:56;;;;;;;10.25;6.50;;;22.90;88.60;;;;;;4931442;28;20227;-76
2022/07/08 03:00:26;;;;;;;11.57;6.40;;;22.90;88.60;;;;;;4933275;28;20197;-76
2022/07/08 03:02:54;;;;;;;9.30;6.80;;;22.90;88.60;;;;;;4937033;28;20219;-76
2022/07/08 03:05:24;;;;;;;13.15;5.93;;;22.90;88.60;;;;;;4938139;28;20198;-76
2022/07/08 03:07:52;;;;;;;8.00;5.75;;;22.90;88.60;;;;;;4934004;28;20211;-76
2022/07/08 03:10:21;;;;;;;12.85;6.03;;;23.00;88.60;;;;;;4932956;28;20203;-76
2022/07/08 03:12:49;;;;;;;8.38;5.93;;;23.00;88.60;;;;;;4939010;28;20206;-76
2022/07/08 03:15:17;;;;;;;11.98;5.47;;;23.00;88.60;;;;;;4933266;28;20218;-76
2022/07/08 03:17:46;;;;;;;9.15;6.00;;;22.90;88.60;;;;;;4935549;28;20227;-75
2022/07/08 03:20:14;;;;;;;9.38;5.60;;;23.00;88.60;;;;;;4945566;28;20202;-75
2022/07/08 03:22:44;;;;;;;10.93;6.40;;;23.00;88.60;;;;;;4935433;28;20197;-75
2022/07/08 03:25:12;;;;;;;9.88;5.95;;;23.00;88.60;;;;;;4939601;28;20201;-75
2022/07/08 03:27:41;;;;;;;9.60;5.80;;;23.00;88.60;;;;;;4934379;28;20213;-75
2022/07/08 03:30:10;;;;;;;8.85;5.65;;;23.00;88.60;;;;;;4944392;28;20250;-75
2022/07/08 03:32:38;;;;;;;7.20;5.40;;;23.00;88.60;;;;;;4942160;28;20195;-76
2022/07/08 03:35:07;;;;;;;10.82;6.43;;;23.00;88.60;;;;;;4944525;28;20191;-76
2022/07/08 03:37:35;;;;;;;9.23;5.43;;;23.00;88.60;;;;;;4942607;28;20205;-76
2022/07/08 03:42:48;;;;;;;7.93;5.00;;;23.00;88.50;;;;;;4942182;28;20206;-76
2022/07/08 03:45:17;;;;;;;9.10;5.68;;;23.10;88.50;;;;;;4945218;28;20217;-76
2022/07/08 03:47:45;;;;;;;10.52;5.85;;;23.10;88.50;;;;;;4934261;28;20400;-76
2022/07/08 03:50:14;;;;;;;8.70;5.93;;;23.10;88.40;;;;;;4936195;28;20200;-78
2022/07/08 03:52:42;;;;;;;11.68;6.00;;;23.20;88.40;;;;;;4944978;28;20195;-78
2022/07/08 03:55:13;;;;;;;12.00;6.38;;;23.20;88.50;;;;;;4941157;28;20195;-78
2022/07/08 03:57:41;;;;;;;7.95;5.57;;;23.20;88.50;;;;;;4938330;28;20187;-77
2022/07/08 04:00:11;;;;;;;12.10;5.78;;;23.20;88.60;;;;;;4944586;28;20199;-78
2022/07/08 04:02:39;;;;;;;9.43;5.95;;;23.20;88.60;;;;;;4942536;28;20202;-76
2022/07/08 04:05:08;;;;;;;13.70;6.38;;;23.10;88.60;;;;;;4936164;28;20202;-77
2022/07/08 04:07:36;;;;;;;9.00;5.93;;;23.20;88.80;;;;;;4942816;28;20281;-77
2022/07/08 04:10:06;;;;;;;10.63;6.38;;;23.20;88.70;;;;;;4945523;28;20205;-75
2022/07/08 04:12:35;;;;;;;10.75;6.15;;;23.20;88.70;;;;;;4944869;28;20346;-77
2022/07/08 04:15:05;;;;;;;8.48;5.95;;;23.30;88.70;;;;;;4944299;28;20254;-78
2022/07/08 04:17:34;;;;;;;9.20;5.32;;;23.30;88.60;;;;;;4942120;28;20210;-78
2022/07/08 04:20:02;;;;;;;10.52;5.25;;;23.30;88.60;;;;;;4943330;28;20229;-77
2022/07/08 04:22:30;;;;;;;7.03;5.15;;;23.40;88.70;;;;;;4942412;28;20199;-77
2022/07/08 04:24:59;;;;;;;7.65;5.28;;;23.40;88.70;;;;;;4936993;28;20690;-77
2022/07/08 04:27:27;;;;;;;9.38;5.25;;;23.40;88.70;;;;;;4941155;28;20198;-76
2022/07/08 04:29:57;;;;;;;9.35;5.25;;;23.50;88.80;;;;;;4944602;28;20229;-75
2022/07/08 04:32:25;;;;;;;9.30;5.22;;;23.50;88.70;;;;;;4936847;28;20192;-79
2022/07/08 04:34:58;;;;;;;10.95;5.35;;;23.60;88.60;;;;;;4941409;28;20194;-77
2022/07/08 04:37:27;;;;;;;9.27;5.10;;;23.60;88.40;;;;;;4945907;28;20195;-77
2022/07/08 04:39:55;;;;;;;6.93;4.95;;;23.60;88.30;;;;;;4939644;28;20230;-77
2022/07/08 04:42:23;;;;;;;8.43;5.50;;;23.70;87.90;;;;;;4941920;28;20198;-79
2022/07/08 04:44:52;;;;;;;5.40;4.20;;;23.70;87.70;;;;;;4943509;28;20211;-76
2022/07/08 04:47:21;;;;;;;6.35;4.07;;;23.70;87.50;;;;;;4933798;29;20199;-78
2022/07/08 04:49:50;;;;;;;9.45;4.40;;;23.70;87.40;;;;;;4940053;28;20580;-77
2022/07/08 04:52:18;;;;;;;5.88;4.10;;;23.80;87.30;;;;;;4946498;29;20206;-77
2022/07/08 04:54:46;;;;;;;6.97;4.28;;;23.80;87.20;;;;;;4941009;28;20198;-78
2022/07/08 04:57:15;;;;;;;7.05;4.00;;;23.90;87.20;;;;;;4945353;28;20195;-78
2022/07/08 04:59:43;;;;;;;6.00;4.55;;;23.90;87.10;;;;;;4942282;28;20221;-76
2022/07/08 05:02:12;;;;;;;8.77;4.72;;;24.00;86.90;;;;;;4947434;28;20631;-77
2022/07/08 05:04:42;;;;;;;9.38;4.82;;;24.00;86.60;;;;;;4939743;28;20218;-77
2022/07/08 05:07:10;;;;;;;6.40;4.57;;;24.00;86.50;;;;;;4947146;28;20199;-76
2022/07/08 05:09:39;;;;;;;5.72;4.28;;;24.00;86.60;;;;;;4942464;28;20697;-76
2022/07/08 05:12:07;;;;;;;8.32;4.30;;;24.10;86.60;;;;;;4942783;28;20213;-76
2022/07/08 05:14:36;;;;;;;6.10;3.75;;;24.10;86.50;;;;;;4942130;28;20727;-78
2022/07/08 05:17:04;;;;;;;8.10;4.72;;;24.20;86.40;;;;;;4943375;28;20209;-77
2022/07/08 05:19:33;;;;;;;5.93;3.78;;;24.20;86.30;;;;;;4942992;28;20234;-76
2022/07/08 05:22:03;;;;;;;5.85;4.25;;;24.30;86.30;;;;;;4941614;28;20210;-76
2022/07/08 05:24:32;;;;;;;8.15;3.85;;;24.30;86.10;;;;;;4937327;28;20196;-76
2022/07/08 05:27:00;;;;;;;7.95;4.03;;;24.40;85.80;;;;;;4941277;28;20202;-77
2022/07/08 05:29:28;;;;;;;5.97;3.65;;;24.40;85.70;;;;;;4941355;28;20202;-75
2022/07/08 05:31:57;;;;;;;9.60;3.60;;;24.50;85.50;;;;;;4940278;28;20195;-77
2022/07/08 05:34:25;;;;;;;6.85;3.15;;;24.50;85.30;;;;;;4938527;28;20198;-76
2022/07/08 05:36:53;;;;;;;6.88;3.75;;;24.60;85.90;;;;;;4939902;28;20813;-75
2022/07/08 05:39:23;;;;;;;11.07;3.88;;;24.60;84.80;;;;;;4953964;28;20214;-77
2022/07/08 05:41:52;;;;;;;7.60;3.60;;;24.60;84.40;;;;;;4944868;28;20198;-76
2022/07/08 05:44:20;;;;;;;8.40;3.40;;;24.70;84.70;;;;;;4951929;28;20552;-77
2022/07/08 05:46:48;;;;;;;4.75;3.47;;;24.70;84.20;;;;;;4947572;28;20201;-76
2022/07/08 05:49:17;;;;;;;7.13;3.95;;;24.80;84.20;;;;;;4948869;28;20652;-76
2022/07/08 05:51:45;;;;;;;10.35;4.47;;;24.80;83.80;;;;;;4937950;28;20210;-77
2022/07/08 05:54:14;;;;;;;6.68;4.35;;;24.80;83.60;;;;;;4940594;28;20668;-77
2022/07/08 05:56:44;;;;;;;7.47;5.38;;;24.80;83.50;;;;;;4940943;28;20199;-76
2022/07/08 05:59:12;;;;;;;11.63;5.70;;;24.80;83.50;;;;;;4948280;28;20706;-75
2022/07/08 06:01:40;;;;;;;9.00;5.10;;;24.90;83.60;;;;;;4937181;28;20202;-77
2022/07/08 06:04:09;;;;;;;8.48;5.75;;;24.90;83.60;;;;;;4937704;28;20313;-76
2022/07/08 06:06:37;;;;;;;7.45;5.38;;;25.00;83.60;;;;;;4952718;28;20206;-76
2022/07/08 06:09:06;;;;;;;10.68;5.50;;;25.00;83.80;;;;;;4944465;28;20198;-76
2022/07/08 06:11:34;;;;;;;8.65;5.75;;;25.00;83.80;;;;;;4943591;29;20202;-76
2022/07/08 06:14:04;;;;;;;12.82;5.63;;;25.00;83.90;;;;;;4940942;28;20589;-76
2022/07/08 06:16:32;;;;;;;9.20;6.10;;;25.10;84.20;;;;;;4941215;28;20590;-76
2022/07/08 06:19:01;;;;;;;11.82;6.47;;;25.10;84.30;;;;;;4939818;28;20202;-76
2022/07/08 06:21:29;;;;;;;10.02;7.30;;;25.20;84.50;;;;;;4943157;28;20203;-74
2022/07/08 06:23:58;;;;;;;11.32;6.80;;;25.20;84.60;;;;;;4942756;28;20201;-76
2022/07/08 06:26:26;;;;;;;9.48;6.10;;;25.30;84.80;;;;;;4940920;28;20719;-76
2022/07/08 06:28:54;;;;;;;9.90;5.40;;;25.30;84.80;;;;;;4940656;28;20195;-76
2022/07/08 06:31:24;;;;;;;16.08;6.80;;;25.40;84.80;;;;;;4938466;28;20198;-76
2022/07/08 06:33:56;;;;;;;10.43;5.40;;;25.40;84.80;;;;;;4939185;28;20202;-77
2022/07/08 06:36:25;;;;;;;8.10;5.78;;;25.40;84.80;;;;;;4941022;28;20186;-76
2022/07/08 06:38:54;;;;;;;9.63;5.32;;;25.50;84.90;;;;;;4943491;28;20225;-77
2022/07/08 06:41:27;;;;;;;9.95;5.25;;;25.60;85.00;;;;;;4928110;28;20202;-76
2022/07/08 06:43:56;;;;;;;10.50;5.60;;;25.60;84.90;;;;;;4948629;28;20210;-76
2022/07/08 06:46:25;;;;;;;8.77;5.63;;;25.60;84.80;;;;;;4947705;28;20199;-76
2022/07/08 06:48:54;;;;;;;8.50;5.07;;;25.60;84.70;;;;;;4944194;28;20709;-75
2022/07/08 06:51:22;;;;;;;6.43;4.50;;;25.70;84.60;;;;;;4947145;28;20198;-76
2022/07/08 06:56:36;;;;;;;14.27;5.15;;;25.80;84.30;;;;;;4945766;28;20202;-76
2022/07/08 06:59:06;;;;;;;7.47;4.00;;;25.90;84.30;;;;;;4935745;29;20207;-75
2022/07/08 07:01:35;;;;;;;7.63;4.85;;;25.90;84.20;;;;;;4947409;29;20269;-77
2022/07/08 07:04:04;;;;;;;8.90;4.60;;;26.00;83.80;;;;;;4946528;28;20776;-76
2022/07/08 07:06:33;;;;;;;6.60;4.15;;;26.00;83.70;;;;;;4946268;28;20202;-78
2022/07/08 07:09:01;;;;;;;5.95;4.78;;;26.10;83.60;;;;;;4948121;28;20225;-75
2022/07/08 07:11:29;;;;;;;6.95;4.68;;;26.10;82.70;;;;;;4948496;29;20209;-76
2022/07/08 07:13:58;;;;;;;4.82;3.30;;;26.10;82.90;;;;;;4947440;28;20234;-78
2022/07/08 07:16:26;;;;;;;7.75;3.42;;;26.20;82.70;;;;;;4945118;29;20228;-77
2022/07/08 07:18:56;;;;;;;6.95;3.35;;;26.20;81.60;;;;;;4943922;28;20846;-77
2022/07/08 07:21:24;;;;;;;6.45;2.97;;;26.30;81.10;;;;;;4947563;29;20226;-77
2022/07/08 07:23:53;;;;;;;4.63;2.92;;;26.30;80.90;;;;;;4946312;28;20546;-78
2022/07/08 07:26:21;;;;;;;5.28;3.00;;;26.30;80.40;;;;;;4947259;29;20199;-76
2022/07/08 07:28:50;;;;;;;5.45;3.00;;;26.40;79.70;;;;;;4945775;28;20206;-76
2022/07/08 07:31:18;;;;;;;3.67;2.47;;;26.40;79.50;;;;;;4947068;29;20197;-76
2022/07/08 07:33:47;;;;;;;4.55;3.38;;;26.40;78.80;;;;;;4944598;28;20769;-76
2022/07/08 07:36:16;;;;;;;6.43;2.55;;;26.50;78.30;;;;;;4948369;29;20202;-77
2022/07/08 07:38:45;;;;;;;4.15;2.97;;;26.60;78.00;;;;;;4946767;28;20243;-76
2022/07/08 07:41:13;;;;;;;4.60;2.55;;;26.60;77.50;;;;;;4947025;28;20905;-77
2022/07/08 07:43:42;;;;;;;5.57;2.85;;;26.70;77.30;;;;;;4946116;28;20199;-76
2022/07/08 07:46:10;;;;;;;4.72;2.65;;;26.80;77.40;;;;;;4947740;29;20615;-76
2022/07/08 07:48:39;;;;;;;5.43;3.00;;;26.80;77.50;;;;;;4940813;28;20205;-78
2022/07/08 07:51:07;;;;;;;3.78;2.25;;;26.90;76.10;;;;;;4943485;28;20195;-77
2022/07/08 07:53:37;;;;;;;3.95;2.20;;;27.00;74.80;;;;;;4943839;28;20608;-77
2022/07/08 07:56:06;;;;;;;3.65;2.17;;;27.10;74.60;;;;;;4938357;29;20194;-79
2022/07/08 07:58:35;;;;;;;5.13;2.20;;;27.20;74.30;;;;;;4944710;29;20195;-76
2022/07/08 08:01:03;;;;;;;4.45;2.00;;;27.20;72.30;;;;;;4941412;28;20218;-77
2022/07/08 08:03:32;;;;;;;6.95;2.45;;;27.20;71.70;;;;;;4923932;28;20254;-76
2022/07/08 08:06:01;;;;;;;11.80;1.50;;;27.30;71.90;;;;;;4934808;28;20209;-79
2022/07/08 08:08:31;;;;;;;2.33;1.58;;;27.40;69.40;;;;;;4939947;29;20195;-78
2022/07/08 08:11:02;;;;;;;3.42;1.90;;;27.40;68.80;;;;;;4942497;28;20285;-77
2022/07/08 08:13:31;;;;;;;3.45;2.42;;;27.50;69.40;;;;;;4941607;28;20603;-78
2022/07/08 08:15:59;;;;;;;4.65;2.03;;;27.50;69.20;;;;;;4942530;28;20214;-78
2022/07/08 08:18:28;;;;;;;2.85;1.73;;;27.50;69.20;;;;;;4936735;28;20198;-78
2022/07/08 08:20:57;;;;;;;3.22;1.70;;;27.60;68.10;;;;;;4937614;28;20630;-77
2022/07/08 08:23:25;;;;;;;3.03;1.40;;;27.60;67.20;;;;;;4937025;28;20209;-77
2022/07/08 08:25:53;;;;;;;2.70;1.40;;;27.60;65.30;;;;;;4931955;28;20209;-78
2022/07/08 08:28:24;;;;;;;3.70;1.30;;;27.60;65.70;;;;;;4935700;28;20191;-78
2022/07/08 08:30:52;;;;;;;2.05;1.30;;;27.70;64.80;;;;;;4954875;28;20197;-78
2022/07/08 08:33:21;;;;;;;3.45;1.30;;;27.70;64.60;;;;;;4934475;28;20210;-79
2022/07/08 08:35:49;;;;;;;3.20;1.35;;;27.70;64.50;;;;;;4934449;28;20207;-79
2022/07/08 08:38:18;;;;;;;1.45;1.17;;;27.70;64.40;;;;;;4933329;28;20688;-78
2022/07/08 08:40:47;;;;;;;2.85;1.08;;;27.80;64.80;;;;;;4935040;28;20948;-78
2022/07/08 08:43:16;;;;;;;2.28;1.30;;;27.80;64.80;;;;;;4934953;28;20202;-77
2022/07/08 08:45:47;;;;;;;3.17;1.50;;;27.80;64.90;;;;;;4944874;28;20206;-78
2022/07/08 08:48:18;;;;;;;1.73;1.20;;;27.80;64.60;;;;;;4938794;29;20562;-78
2022/07/08 08:50:55;;;;;;;5.28;1.35;;;27.90;64.00;;;;;;4938309;28;20942;-77
2022/07/08 08:53:27;;;;;;;4.00;1.30;;;27.90;64.10;;;;;;4940620;28;20198;-77
2022/07/08 08:55:57;;;;;;;2.50;1.38;;;27.90;65.40;;;;;;4941314;28;20270;-76
2022/07/08 08:58:26;;;;;;;3.17;1.33;;;27.90;62.40;;;;;;4933432;28;20668;-77
2022/07/08 09:00:56;;;;;;;2.30;1.27;;;28.00;62.50;;;;;;4936138;28;21014;-75
2022/07/08 09:03:25;;;;;;;4.68;1.20;;;28.00;62.50;;;;;;4935562;28;20591;-77
2022/07/08 09:05:54;;;;;;;1.65;1.10;;;28.00;62.50;;;;;;4944774;28;20209;-77
2022/07/08 09:08:22;;;;;;;2.75;1.17;;;28.00;62.60;;;;;;4938844;28;20199;-78
2022/07/08 09:10:51;;;;;;;2.72;1.35;;;28.10;62.70;;;;;;4930722;28;21036;-77
2022/07/08 09:13:23;;;;;;;1.92;1.13;;;28.10;63.10;;;;;;4934907;28;20697;-77
2022/07/08 09:15:54;;;;;;;3.58;1.40;;;28.20;62.40;;;;;;4930363;28;20238;-78
2022/07/08 09:18:29;;;;;;;1.23;1.05;;;28.20;61.50;;;;;;4939324;28;20186;-77
2022/07/08 09:20:59;;;;;;;4.45;1.52;;;28.20;61.60;;;;;;4937273;28;20215;-78
2022/07/08 09:23:31;;;;;;;5.72;1.58;;;28.30;61.90;;;;;;4936602;28;20225;-77
2022/07/08 09:26:02;;;;;;;1.73;0.90;;;28.30;61.40;;;;;;4940551;29;20209;-78
2022/07/08 09:28:33;;;;;;;3.72;1.40;;;28.40;61.10;;;;;;4943327;29;20222;-79
2022/07/08 09:31:04;;;;;;;3.55;1.08;;;28.40;59.90;;;;;;4943193;28;20198;-78
2022/07/08 09:33:35;;;;;;;7.68;1.33;;;28.50;61.00;;;;;;4939881;28;20293;-78
2022/07/08 09:36:04;;;;;;;1.60;1.10;;;28.50;61.00;;;;;;4936780;28;20202;-76
2022/07/08 09:38:35;;;;;;;2.40;1.45;;;28.50;61.00;;;;;;4942882;29;20207;-77
2022/07/08 09:41:05;;;;;;;3.25;1.17;;;28.50;59.80;;;;;;4944207;29;20206;-78
2022/07/08 09:43:43;;;;;;;2.88;1.17;;;28.60;60.10;;;;;;4935110;28;20195;-78
2022/07/08 09:46:11;;;;;;;1.65;1.20;;;28.70;60.40;;;;;;4933114;28;20194;-78
2022/07/08 09:48:41;;;;;;;3.90;1.38;;;28.70;59.60;;;;;;4948649;28;20201;-77
2022/07/08 09:51:09;;;;;;;406.02;215.95;;;28.80;59.90;;;;;;4946243;28;20711;-77
2022/07/08 09:53:39;;;;;;;31.13;17.05;;;28.90;59.90;;;;;;4941006;28;20204;-78
2022/07/08 09:56:10;;;;;;;10.05;5.28;;;28.90;60.00;;;;;;4938621;28;20810;-80
2022/07/08 09:58:38;;;;;;;11.20;4.40;;;29.00;60.00;;;;;;4935002;29;20688;-79
2022/07/08 10:01:08;;;;;;;4.50;2.47;;;29.10;59.60;;;;;;4939649;28;20230;-79
2022/07/08 10:03:41;;;;;;;2.03;1.60;;;29.10;58.40;;;;;;4942123;28;20226;-78
2022/07/08 10:06:10;;;;;;;4.25;2.83;;;29.10;58.40;;;;;;4939423;28;20218;-78
2022/07/08 10:08:38;;;;;;;9.40;6.00;;;29.20;58.70;;;;;;4940415;29;20201;-78
2022/07/08 10:11:11;;;;;;;3.08;1.50;;;29.20;58.90;;;;;;4939972;28;20245;-80
2022/07/08 10:13:41;;;;;;;4.38;1.10;;;29.30;58.60;;;;;;4946092;28;20205;-80
2022/07/08 10:16:11;;;;;;;3.75;1.20;;;29.30;58.20;;;;;;4931696;28;20230;-79
2022/07/08 10:18:45;;;;;;;1.73;1.10;;;29.40;58.30;;;;;;4938781;28;20206;-77
2022/07/08 10:21:21;;;;;;;2.08;1.10;;;29.50;58.30;;;;;;4938552;28;20198;-79
2022/07/08 10:23:51;;;;;;;4.78;1.23;;;29.60;58.10;;;;;;4946218;28;20276;-78
2022/07/08 10:26:24;;;;;;;2.35;0.98;;;29.60;58.30;;;;;;4948383;28;20201;-79
2022/07/08 10:29:02;;;;;;;2.30;1.23;;;29.70;58.70;;;;;;4946413;29;20205;-77
2022/07/08 10:31:30;;;;;;;3.15;1.00;;;29.70;58.40;;;;;;4938262;28;20191;-78
2022/07/08 10:34:03;;;;;;;4.80;1.38;;;29.80;58.00;;;;;;4941641;28;20190;-78
2022/07/08 10:36:45;;;;;;;3.70;1.50;;;29.90;58.30;;;;;;4943062;28;20205;-77
2022/07/08 10:39:14;;;;;;;1.70;1.33;;;29.90;56.80;;;;;;4945328;29;20633;-77
2022/07/08 10:41:57;;;;;;;1.77;1.20;;;30.00;57.00;;;;;;4946061;28;20237;-78
2022/07/08 10:44:50;;;;;;;2.83;1.10;;;30.20;57.10;;;;;;4931737;28;20745;-77
2022/07/08 10:47:24;;;;;;;1.83;1.10;;;30.30;56.30;;;;;;4929831;28;20202;-79
2022/07/08 10:50:04;;;;;;;1.50;1.10;;;30.30;56.20;;;;;;4942169;28;20198;-79
2022/07/08 10:52:34;;;;;;;1.98;1.00;;;30.30;55.30;;;;;;4940847;28;20225;-79
2022/07/08 10:55:13;;;;;;;3.38;1.27;;;30.30;54.20;;;;;;4945897;28;20194;-77
2022/07/08 10:57:54;;;;;;;2.97;1.40;;;30.40;54.30;;;;;;4944310;28;20194;-78
2022/07/08 11:00:23;;;;;;;3.30;1.00;;;30.40;54.10;;;;;;4944902;29;20198;-77
2022/07/08 11:02:52;;;;;;;1.17;0.95;;;30.40;54.50;;;;;;4940712;28;20718;-77
2022/07/08 11:05:39;;;;;;;6.05;1.60;;;30.50;54.80;;;;;;4945124;28;20202;-78
2022/07/08 11:08:27;;;;;;;2.50;0.88;;;30.60;54.70;;;;;;4938776;28;20660;-78
2022/07/08 11:10:56;;;;;;;2.55;1.20;;;30.60;54.40;;;;;;4940495;28;20194;-78
2022/07/08 11:13:26;;;;;;;2.55;1.20;;;30.50;54.60;;;;;;4940080;28;20607;-79
2022/07/08 11:15:59;;;;;;;1.85;1.10;;;30.60;54.20;;;;;;4938252;28;20202;-78
2022/07/08 11:18:28;;;;;;;4.70;1.15;;;30.70;54.30;;;;;;4943248;28;20226;-77
2022/07/08 11:21:01;;;;;;;2.13;1.13;;;30.70;54.20;;;;;;4944076;29;20202;-77
2022/07/08 11:23:31;;;;;;;1.77;1.10;;;30.80;53.90;;;;;;4943043;28;20222;-77
2022/07/08 11:26:00;;;;;;;2.75;1.00;;;30.80;53.50;;;;;;4946109;29;20244;-76
2022/07/08 11:28:29;;;;;;;1.10;0.90;;;30.80;52.90;;;;;;4936140;28;20203;-79
2022/07/08 11:31:01;;;;;;;1.77;1.10;;;30.90;53.40;;;;;;4940123;28;20624;-77
2022/07/08 11:33:40;;;;;;;1.27;0.90;;;30.90;53.40;;;;;;4941288;28;20210;-75
2022/07/08 11:36:17;;;;;;;4.43;1.20;;;31.00;52.70;;;;;;4940622;28;20221;-77
2022/07/08 11:38:46;;;;;;;2.17;0.98;;;31.00;52.80;;;;;;4940958;28;20890;-77
2022/07/08 11:41:17;;;;;;;6.63;1.30;;;30.90;52.60;;;;;;4943354;29;20289;-78
2022/07/08 11:43:46;;;;;;;2.97;0.82;;;30.80;52.70;;;;;;4942961;29;20214;-78
2022/07/08 11:46:19;;;;;;;7.10;1.60;;;30.90;52.80;;;;;;4934038;28;20285;-78
2022/07/08 11:48:47;;;;;;;2.25;1.20;;;30.90;53.30;;;;;;4939942;28;20698;-76
2022/07/08 11:51:18;;;;;;;3.17;1.30;;;30.90;53.40;;;;;;4940541;28;20202;-76
2022/07/08 11:53:46;;;;;;;9.05;1.30;;;30.90;52.30;;;;;;4943545;28;20202;-78
2022/07/08 11:56:15;;;;;;;1.55;0.98;;;31.00;51.60;;;;;;4939842;29;20685;-75
2022/07/08 11:58:43;;;;;;;3.67;1.10;;;31.10;51.90;;;;;;4943500;28;20203;-76
2022/07/08 12:01:12;;;;;;;2.17;1.20;;;31.10;51.80;;;;;;4939550;28;20206;-77
2022/07/08 12:03:40;;;;;;;1.63;0.98;;;31.20;52.00;;;;;;4943507;28;20255;-76
2022/07/08 12:06:09;;;;;;;2.33;1.23;;;31.20;52.00;;;;;;4942125;28;20575;-77
2022/07/08 12:08:46;;;;;;;4.72;1.20;;;31.20;52.20;;;;;;4940270;28;20210;-79
2022/07/08 12:11:16;;;;;;;3.42;1.73;;;31.20;52.30;;;;;;4936414;28;20190;-77
2022/07/08 12:13:45;;;;;;;9.90;1.25;;;31.20;52.30;;;;;;4938908;28;20300;-75
2022/07/08 12:16:28;;;;;;;1.55;1.05;;;31.30;52.50;;;;;;4941540;28;20217;-76
2022/07/08 12:18:57;;;;;;;6.60;1.10;;;31.30;52.30;;;;;;4947624;28;20190;-79
2022/07/08 12:21:26;;;;;;;1.38;0.98;;;31.40;52.10;;;;;;4944931;28;20206;-77
2022/07/08 12:24:01;;;;;;;1.33;0.80;;;31.50;52.40;;;;;;4944812;28;20262;-76
2022/07/08 12:26:30;;;;;;;3.72;0.82;;;31.60;51.70;;;;;;4945221;28;20194;-77
2022/07/08 12:28:58;;;;;;;1.92;0.90;;;31.70;52.10;;;;;;4946337;28;20289;-77
2022/07/08 12:31:34;;;;;;;2.55;1.00;;;31.80;51.80;;;;;;4940734;28;20202;-77
2022/07/08 12:34:03;;;;;;;2.65;1.30;;;31.80;51.60;;;;;;4944552;29;20539;-76
2022/07/08 12:36:32;;;;;;;1.83;1.00;;;31.90;51.00;;;;;;4941333;28;20480;-77
2022/07/08 12:39:17;;;;;;;2.65;1.10;;;31.90;51.30;;;;;;4943381;28;20863;-77
2022/07/08 12:41:58;;;;;;;3.22;1.00;;;31.90;51.30;;;;;;4945198;29;21096;-75
2022/07/08 12:44:39;;;;;;;1.70;0.90;;;32.00;51.50;;;;;;4944385;28;20301;-79
2022/07/08 12:47:08;;;;;;;2.00;1.05;;;32.10;51.50;;;;;;4946703;28;20194;-77
2022/07/08 12:49:39;;;;;;;2.15;1.00;;;32.20;50.20;;;;;;4943786;28;20193;-77
2022/07/08 12:52:09;;;;;;;3.28;1.20;;;32.20;50.30;;;;;;4945888;29;20197;-79
2022/07/08 12:54:40;;;;;;;1.83;0.90;;;32.30;50.40;;;;;;4944735;28;20202;-79
2022/07/08 12:57:09;;;;;;;3.38;1.20;;;32.20;50.00;;;;;;4945567;29;20201;-79
2022/07/08 12:59:37;;;;;;;1.90;1.05;;;32.20;49.60;;;;;;4940190;28;20198;-79
2022/07/08 13:02:06;;;;;;;3.30;1.17;;;32.20;49.50;;;;;;4944552;28;20202;-78
2022/07/08 13:04:34;;;;;;;2.55;0.95;;;32.00;49.20;;;;;;4943756;28;20716;-77
2022/07/08 13:07:03;;;;;;;1.85;0.90;;;32.00;48.60;;;;;;4945089;28;20845;-79